createdAt,value
2018-06-14T00:01:27.337Z,2.60
2018-06-14T00:03:56.609Z,2.70
2018-06-14T00:06:25.716Z,2.67
2018-06-14T00:08:54.927Z,2.50
2018-06-14T00:11:24.095Z,3.00
2018-06-14T00:13:53.222Z,2.57
2018-06-14T00:16:22.362Z,3.33
2018-06-14T00:18:51.457Z,3.03
2018-06-14T00:21:20.610Z,2.80
2018-06-14T00:23:49.806Z,2.80
2018-06-14T00:26:18.954Z,2.33
2018-06-14T00:28:48.079Z,2.60
2018-06-14T00:31:17.198Z,2.53
2018-06-14T00:33:46.352Z,2.90
2018-06-14T00:36:15.536Z,2.43
2018-06-14T00:38:44.749Z,2.70
2018-06-14T00:41:13.926Z,3.10
2018-06-14T00:43:43.081Z,2.53
2018-06-14T00:46:12.174Z,3.40
2018-06-14T00:48:41.376Z,2.30
2018-06-14T00:51:10.513Z,2.87
2018-06-14T00:53:39.671Z,2.80
2018-06-14T00:56:08.852Z,2.87
2018-06-14T00:58:37.942Z,2.53
2018-06-14T01:01:07.145Z,3.00
2018-06-14T01:03:36.254Z,3.20
2018-06-14T01:06:05.446Z,2.00
2018-06-14T01:08:34.541Z,2.77
2018-06-14T01:11:03.641Z,2.37
2018-06-14T01:13:32.891Z,2.83
2018-06-14T01:16:02.066Z,2.53
2018-06-14T01:18:31.194Z,3.00
2018-06-14T01:21:00.415Z,3.60
2018-06-14T01:23:29.607Z,2.77
2018-06-14T01:25:58.780Z,2.50
2018-06-14T01:28:27.956Z,2.63
2018-06-14T01:30:57.113Z,3.17
2018-06-14T01:33:26.260Z,3.30
2018-06-14T01:35:55.385Z,2.90
2018-06-14T01:38:26.161Z,2.73
2018-06-14T01:40:55.642Z,2.73
2018-06-14T01:43:24.800Z,3.13
2018-06-14T01:45:53.935Z,3.27
2018-06-14T01:48:23.093Z,2.80
2018-06-14T01:50:52.282Z,3.53
2018-06-14T01:53:21.537Z,2.77
2018-06-14T01:55:50.770Z,2.40
2018-06-14T01:58:19.995Z,3.10
2018-06-14T02:00:49.131Z,2.50
2018-06-14T02:03:18.281Z,2.80
2018-06-14T02:05:47.408Z,2.63
2018-06-14T02:08:16.736Z,2.87
2018-06-14T02:10:45.922Z,2.50
2018-06-14T02:13:15.065Z,3.40
2018-06-14T02:15:44.186Z,2.77
2018-06-14T02:18:13.304Z,2.53
2018-06-14T02:20:42.453Z,2.23
2018-06-14T02:23:11.599Z,3.13
2018-06-14T02:25:40.739Z,2.53
2018-06-14T02:28:09.874Z,2.60
2018-06-14T02:30:39.105Z,2.63
2018-06-14T02:33:08.330Z,2.43
2018-06-14T02:35:37.481Z,2.93
2018-06-14T02:38:06.587Z,2.83
2018-06-14T02:40:35.708Z,2.63
2018-06-14T02:43:04.824Z,3.23
2018-06-14T02:45:33.995Z,2.60
2018-06-14T02:48:03.189Z,2.90
2018-06-14T02:50:32.324Z,2.60
2018-06-14T02:53:01.536Z,3.00
2018-06-14T02:55:30.708Z,2.90
2018-06-14T02:57:59.806Z,3.30
2018-06-14T03:00:28.946Z,2.63
2018-06-14T03:02:58.094Z,3.17
2018-06-14T03:05:27.294Z,3.03
2018-06-14T03:07:56.415Z,2.67
2018-06-14T03:10:25.618Z,2.97
2018-06-14T03:12:54.783Z,3.10
2018-06-14T03:15:25.731Z,2.83
2018-06-14T03:17:55.448Z,2.67
2018-06-14T03:20:26.503Z,2.97
2018-06-14T03:22:56.390Z,2.53
2018-06-14T03:25:25.578Z,3.47
2018-06-14T03:27:54.749Z,3.30
2018-06-14T03:30:23.906Z,2.90
2018-06-14T03:32:52.784Z,2.90
2018-06-14T03:35:22.168Z,2.70
2018-06-14T03:37:51.285Z,2.80
2018-06-14T03:40:20.427Z,2.53
2018-06-14T03:42:49.616Z,3.23
2018-06-14T03:45:19.968Z,2.50
2018-06-14T03:47:50.434Z,2.70
2018-06-14T03:50:19.609Z,3.17
2018-06-14T03:52:48.713Z,2.70
2018-06-14T03:55:18.030Z,2.73
2018-06-14T03:57:47.178Z,3.40
2018-06-14T04:00:16.333Z,2.90
2018-06-14T04:02:45.556Z,3.83
2018-06-14T04:05:14.731Z,3.30
2018-06-14T04:07:44.076Z,3.17
2018-06-14T04:10:13.214Z,2.90
2018-06-14T04:12:42.390Z,2.97
2018-06-14T04:15:11.563Z,3.90
2018-06-14T04:17:40.719Z,2.60
2018-06-14T04:20:09.906Z,3.53
2018-06-14T04:22:39.032Z,2.73
2018-06-14T04:25:08.185Z,2.90
2018-06-14T04:27:37.345Z,2.60
2018-06-14T04:30:06.606Z,3.40
2018-06-14T04:32:35.813Z,2.60
2018-06-14T04:35:05.021Z,3.00
2018-06-14T04:37:34.263Z,2.97
2018-06-14T04:40:03.455Z,2.77
2018-06-14T04:42:33.244Z,2.80
2018-06-14T04:45:02.646Z,2.70
2018-06-14T04:47:31.799Z,3.50
2018-06-14T04:50:00.936Z,2.80
2018-06-14T04:52:30.094Z,3.27
2018-06-14T04:54:59.213Z,3.00
2018-06-14T04:57:28.398Z,2.77
2018-06-14T04:59:57.507Z,3.33
2018-06-14T05:02:26.652Z,3.27
2018-06-14T05:04:55.851Z,3.33
2018-06-14T05:07:25.012Z,3.10
2018-06-14T05:09:54.132Z,3.30
2018-06-14T05:12:23.288Z,3.60
2018-06-14T05:14:52.502Z,3.27
2018-06-14T05:17:21.629Z,2.83
2018-06-14T05:19:50.749Z,3.10
2018-06-14T05:22:20.710Z,3.30
2018-06-14T05:24:49.875Z,4.53
2018-06-14T05:27:19.021Z,3.73
2018-06-14T05:29:48.247Z,2.57
2018-06-14T05:32:17.362Z,3.70
2018-06-14T05:34:46.498Z,2.97
2018-06-14T05:37:15.657Z,3.90
2018-06-14T05:39:44.838Z,3.47
2018-06-14T05:42:13.976Z,3.10
2018-06-14T05:44:43.133Z,3.90
2018-06-14T05:47:12.272Z,4.07
2018-06-14T05:49:41.474Z,2.90
2018-06-14T05:52:10.669Z,2.90
2018-06-14T05:54:40.046Z,3.50
2018-06-14T05:57:09.159Z,3.33
2018-06-14T05:59:38.354Z,3.20
2018-06-14T06:02:07.583Z,2.90
2018-06-14T06:04:36.679Z,3.60
2018-06-14T06:07:05.894Z,3.37
2018-06-14T06:09:35.006Z,3.40
2018-06-14T06:12:04.135Z,3.43
2018-06-14T06:14:33.361Z,3.80
2018-06-14T06:17:02.550Z,3.93
2018-06-14T06:19:31.694Z,3.40
2018-06-14T06:22:00.919Z,3.87
2018-06-14T06:24:30.089Z,4.30
2018-06-14T06:26:59.397Z,3.70
2018-06-14T06:29:28.573Z,3.33
2018-06-14T06:31:57.746Z,4.40
2018-06-14T06:34:26.886Z,3.53
2018-06-14T06:36:56.033Z,3.60
2018-06-14T06:39:25.189Z,2.97
2018-06-14T06:41:54.411Z,3.30
2018-06-14T06:44:23.545Z,4.33
2018-06-14T06:46:52.694Z,3.00
2018-06-14T06:49:21.796Z,3.60
2018-06-14T06:51:50.990Z,3.40
2018-06-14T06:54:20.112Z,3.90
2018-06-14T06:56:49.283Z,4.00
2018-06-14T06:59:18.477Z,3.50
2018-06-14T07:01:47.692Z,4.07
2018-06-14T07:04:16.874Z,3.67
2018-06-14T07:06:46.061Z,3.47
2018-06-14T07:09:15.290Z,3.80
2018-06-14T07:11:44.546Z,3.97
2018-06-14T07:14:13.743Z,3.47
2018-06-14T07:16:42.857Z,3.80
2018-06-14T07:19:11.969Z,4.30
2018-06-14T07:21:41.143Z,3.87
2018-06-14T07:24:10.273Z,3.43
2018-06-14T07:26:39.384Z,3.20
2018-06-14T07:29:08.514Z,3.77
2018-06-14T07:31:37.682Z,3.30
2018-06-14T07:34:06.892Z,3.40
2018-06-14T07:36:36.035Z,3.87
2018-06-14T07:39:09.917Z,3.90
2018-06-14T07:41:39.116Z,3.33
2018-06-14T07:44:08.299Z,3.73
2018-06-14T07:46:37.459Z,3.10
2018-06-14T07:49:06.649Z,2.70
2018-06-14T07:51:35.814Z,2.53
2018-06-14T07:54:05.015Z,2.57
2018-06-14T07:56:34.180Z,2.97
2018-06-14T07:59:03.314Z,2.70
2018-06-14T08:01:32.483Z,3.00
2018-06-14T08:04:01.668Z,2.80
2018-06-14T08:06:30.858Z,3.27
2018-06-14T08:08:59.988Z,3.20
2018-06-14T08:11:29.116Z,2.87
2018-06-14T08:13:58.255Z,2.60
2018-06-14T08:16:27.361Z,2.50
2018-06-14T08:18:56.800Z,2.43
2018-06-14T08:21:25.921Z,2.80
2018-06-14T08:23:55.030Z,2.73
2018-06-14T08:26:24.114Z,2.67
2018-06-14T08:28:53.352Z,2.90
2018-06-14T08:31:22.649Z,1.90
2018-06-14T08:33:51.813Z,2.17
2018-06-14T08:36:20.962Z,3.63
2018-06-14T08:38:50.111Z,2.70
2018-06-14T08:41:19.246Z,3.00
2018-06-14T08:43:48.353Z,2.90
2018-06-14T08:46:17.539Z,3.63
2018-06-14T08:48:46.665Z,3.10
2018-06-14T08:51:15.865Z,3.63
2018-06-14T08:53:45.032Z,2.87
2018-06-14T08:56:14.193Z,2.83
2018-06-14T08:58:43.281Z,2.80
2018-06-14T09:01:12.433Z,2.87
2018-06-14T09:03:41.549Z,3.90
2018-06-14T09:06:10.652Z,2.70
2018-06-14T09:08:39.784Z,2.83
2018-06-14T09:11:08.983Z,2.40
2018-06-14T09:13:38.092Z,3.10
2018-06-14T09:16:07.244Z,2.30
2018-06-14T09:18:36.329Z,2.50
2018-06-14T09:21:05.500Z,2.43
2018-06-14T09:23:34.744Z,2.53
2018-06-14T09:26:03.873Z,2.60
2018-06-14T09:28:33.005Z,2.37
2018-06-14T09:31:02.178Z,2.63
2018-06-14T09:33:31.326Z,2.70
2018-06-14T09:36:00.490Z,2.33
2018-06-14T09:38:29.662Z,2.30
2018-06-14T09:40:58.779Z,2.43
2018-06-14T09:43:27.986Z,3.00
2018-06-14T09:45:57.125Z,3.70
2018-06-14T09:48:26.243Z,2.90
2018-06-14T09:50:55.417Z,2.30
2018-06-14T09:53:24.513Z,4.20
2018-06-14T09:55:53.682Z,2.40
2018-06-14T09:58:22.876Z,2.70
2018-06-14T10:00:52.076Z,2.90
2018-06-14T10:03:21.254Z,3.47
2018-06-14T10:05:50.465Z,2.27
2018-06-14T10:08:19.613Z,3.20
2018-06-14T10:10:48.757Z,2.40
2018-06-14T10:13:18.003Z,2.23
2018-06-14T10:15:47.157Z,2.43
2018-06-14T10:18:16.273Z,2.90
2018-06-14T10:20:45.409Z,2.83
2018-06-14T10:23:14.637Z,2.87
2018-06-14T10:25:43.725Z,2.60
2018-06-14T10:28:12.782Z,3.13
2018-06-14T10:30:41.977Z,2.43
2018-06-14T10:33:11.149Z,2.47
2018-06-14T10:35:40.300Z,2.17
2018-06-14T10:38:09.475Z,2.43
2018-06-14T10:40:38.647Z,2.40
2018-06-14T10:43:08.046Z,2.50
2018-06-14T10:45:37.194Z,2.77
2018-06-14T10:48:06.247Z,2.40
2018-06-14T10:50:35.397Z,2.00
2018-06-14T10:53:04.566Z,2.20
2018-06-14T10:55:33.649Z,2.43
2018-06-14T10:58:02.866Z,2.80
2018-06-14T11:00:32.025Z,2.10
2018-06-14T11:03:01.229Z,2.30
2018-06-14T11:05:30.382Z,2.87
2018-06-14T11:07:59.494Z,2.00
2018-06-14T11:10:28.650Z,2.20
2018-06-14T11:12:57.817Z,1.97
2018-06-14T11:15:27.178Z,2.37
2018-06-14T11:17:56.357Z,2.23
2018-06-14T11:20:25.704Z,2.33
2018-06-14T11:22:54.825Z,1.90
2018-06-14T11:25:24.071Z,2.23
2018-06-14T11:27:53.189Z,2.67
2018-06-14T11:30:22.374Z,2.50
2018-06-14T11:32:51.528Z,3.10
2018-06-14T11:35:22.122Z,2.23
2018-06-14T11:37:51.307Z,2.67
2018-06-14T11:40:20.482Z,2.43
2018-06-14T11:42:49.615Z,2.07
2018-06-14T11:45:20.866Z,2.20
2018-06-14T11:47:50.413Z,1.90
2018-06-14T11:50:19.555Z,1.67
2018-06-14T11:52:48.791Z,1.93
2018-06-14T11:55:17.915Z,2.07
2018-06-14T11:57:47.144Z,2.00
2018-06-14T12:00:16.324Z,1.70
2018-06-14T12:02:45.421Z,1.80
2018-06-14T12:05:14.678Z,2.43
2018-06-14T12:07:43.819Z,2.13
2018-06-14T12:10:12.908Z,1.77
2018-06-14T12:12:42.093Z,1.60
2018-06-14T12:15:11.232Z,2.00
2018-06-14T12:17:40.371Z,2.60
2018-06-14T12:20:09.489Z,1.60
2018-06-14T12:22:38.574Z,2.03
2018-06-14T12:25:07.689Z,2.03
2018-06-14T12:27:36.894Z,1.70
2018-06-14T12:30:06.029Z,2.00
2018-06-14T12:32:35.206Z,1.97
2018-06-14T12:35:04.439Z,1.87
2018-06-14T12:37:33.640Z,1.80
2018-06-14T12:40:02.776Z,2.50
2018-06-14T12:42:31.912Z,1.67
2018-06-14T12:45:00.984Z,1.80
2018-06-14T12:47:30.101Z,1.80
2018-06-14T12:49:59.263Z,2.00
2018-06-14T12:52:28.388Z,1.90
2018-06-14T12:54:57.532Z,2.00
2018-06-14T12:57:26.747Z,1.83
2018-06-14T12:59:55.968Z,1.83
2018-06-14T13:02:25.163Z,1.70
2018-06-14T13:04:54.452Z,1.70
2018-06-14T13:07:23.588Z,1.60
2018-06-14T13:09:52.696Z,1.60
2018-06-14T13:12:21.838Z,1.60
2018-06-14T13:14:51.042Z,1.53
2018-06-14T13:17:20.158Z,1.63
2018-06-14T13:19:49.342Z,1.60
2018-06-14T13:22:18.494Z,1.70
2018-06-14T13:24:47.652Z,1.70
2018-06-14T13:27:16.762Z,1.53
2018-06-14T13:29:45.919Z,1.47
2018-06-14T13:32:15.116Z,1.60
2018-06-14T13:34:44.327Z,1.80
2018-06-14T13:37:14.435Z,2.10
2018-06-14T13:39:43.599Z,1.63
2018-06-14T13:42:12.797Z,1.73
2018-06-14T13:44:42.018Z,2.00
2018-06-14T13:47:11.136Z,1.97
2018-06-14T13:49:40.277Z,2.40
2018-06-14T13:52:09.405Z,1.83
2018-06-14T13:54:38.531Z,2.30
2018-06-14T13:57:07.734Z,1.77
2018-06-14T13:59:36.886Z,1.97
2018-06-14T14:02:06.059Z,1.60
2018-06-14T14:04:35.197Z,1.63
2018-06-14T14:07:05.753Z,1.90
2018-06-14T14:09:35.212Z,1.67
2018-06-14T14:12:04.389Z,1.50
2018-06-14T14:14:33.563Z,2.00
2018-06-14T14:17:02.687Z,1.63
2018-06-14T14:19:34.871Z,1.87
2018-06-14T14:22:04.018Z,1.97
2018-06-14T14:24:33.741Z,1.93
2018-06-14T14:27:02.949Z,2.00
2018-06-14T14:29:35.758Z,1.53
2018-06-14T14:32:05.226Z,1.73
2018-06-14T14:34:34.412Z,1.87
2018-06-14T14:37:04.069Z,1.73
2018-06-14T14:39:33.857Z,1.80
2018-06-14T14:42:03.363Z,1.63
2018-06-14T14:44:33.810Z,1.70
2018-06-14T14:47:02.934Z,1.83
2018-06-14T14:49:32.093Z,2.20
2018-06-14T14:52:01.917Z,2.00
2018-06-14T14:54:31.815Z,1.80
2018-06-14T14:57:01.797Z,1.80
2018-06-14T14:59:31.218Z,1.70
2018-06-14T15:02:00.414Z,1.63
2018-06-14T15:04:32.132Z,2.07
2018-06-14T15:07:01.289Z,2.13
2018-06-14T15:09:30.465Z,2.10
2018-06-14T15:11:59.681Z,1.50
2018-06-14T15:14:28.893Z,1.63
2018-06-14T15:16:58.052Z,1.50
2018-06-14T15:19:28.664Z,2.00
2018-06-14T15:21:57.887Z,1.50
2018-06-14T15:24:28.285Z,1.63
2018-06-14T15:26:57.481Z,1.70
2018-06-14T15:29:28.225Z,1.80
2018-06-14T15:31:57.390Z,1.80
2018-06-14T15:34:26.617Z,1.40
2018-06-14T15:36:55.964Z,1.67
2018-06-14T15:39:25.690Z,2.33
2018-06-14T15:41:54.874Z,1.70
2018-06-14T15:44:24.031Z,1.87
2018-06-14T15:46:53.196Z,1.67
2018-06-14T15:49:22.347Z,1.63
2018-06-14T15:51:51.545Z,2.33
2018-06-14T15:54:20.787Z,1.60
2018-06-14T15:56:49.895Z,1.70
2018-06-14T15:59:18.830Z,1.77
2018-06-14T16:01:48.033Z,1.90
2018-06-14T16:04:17.182Z,2.23
2018-06-14T16:06:46.345Z,1.50
2018-06-14T16:09:15.498Z,6.37
2018-06-14T16:11:44.612Z,1.93
2018-06-14T16:14:13.756Z,2.20
2018-06-14T16:16:43.589Z,1.87
2018-06-14T16:19:12.796Z,1.60
2018-06-14T16:21:45.577Z,2.00
2018-06-14T16:24:14.973Z,1.90
2018-06-14T16:26:44.101Z,1.87
2018-06-14T16:29:13.205Z,1.67
2018-06-14T16:31:42.325Z,1.70
2018-06-14T16:34:11.471Z,1.70
2018-06-14T16:36:40.573Z,1.37
2018-06-14T16:39:09.950Z,1.70
2018-06-14T16:41:39.037Z,1.90
2018-06-14T16:44:08.177Z,1.50
2018-06-14T16:46:37.317Z,1.80
2018-06-14T16:49:06.431Z,1.97
2018-06-14T16:51:35.598Z,1.90
2018-06-14T16:54:04.795Z,1.87
2018-06-14T16:56:33.983Z,1.57
2018-06-14T16:59:03.100Z,1.87
2018-06-14T17:01:32.217Z,1.93
2018-06-14T17:04:01.645Z,1.70
2018-06-14T17:06:32.483Z,1.90
2018-06-14T17:09:01.650Z,2.50
2018-06-14T17:11:30.769Z,1.90
2018-06-14T17:13:59.870Z,2.20
2018-06-14T17:16:29.033Z,1.87
2018-06-14T17:18:58.516Z,2.30
2018-06-14T17:21:28.006Z,2.33
2018-06-14T17:23:57.159Z,2.60
2018-06-14T17:26:26.284Z,2.27
2018-06-14T17:28:55.444Z,2.43
2018-06-14T17:31:24.548Z,1.80
2018-06-14T17:33:53.942Z,2.20
2018-06-14T17:36:23.103Z,2.27
2018-06-14T17:38:52.322Z,2.30
2018-06-14T17:41:21.512Z,2.20
2018-06-14T17:43:50.669Z,2.67
2018-06-14T17:46:19.792Z,2.33
2018-06-14T17:48:48.965Z,2.10
2018-06-14T17:51:18.030Z,2.77
2018-06-14T17:53:47.237Z,2.60
2018-06-14T17:56:16.387Z,2.37
2018-06-14T17:58:45.685Z,2.30
2018-06-14T18:01:15.942Z,2.80
2018-06-14T18:03:45.413Z,3.07
2018-06-14T18:06:14.521Z,3.40
2018-06-14T18:08:43.632Z,3.37
2018-06-14T18:11:13.065Z,2.80
2018-06-14T18:13:42.213Z,3.07
2018-06-14T18:16:11.366Z,3.10
2018-06-14T18:18:40.481Z,2.80
2018-06-14T18:21:10.788Z,3.03
2018-06-14T18:23:39.946Z,3.27
2018-06-14T18:26:09.170Z,3.10
2018-06-14T18:28:38.365Z,3.33
2018-06-14T18:31:07.624Z,3.77
2018-06-14T18:33:36.856Z,3.17
2018-06-14T18:36:06.059Z,3.37
2018-06-14T18:38:35.297Z,3.20
2018-06-14T18:41:04.578Z,3.33
2018-06-14T18:43:33.768Z,3.80
2018-06-14T18:46:03.028Z,3.53
2018-06-14T18:48:32.480Z,4.13
2018-06-14T18:51:01.652Z,3.57
2018-06-14T18:53:30.968Z,4.17
2018-06-14T18:56:00.226Z,3.57
2018-06-14T18:58:29.408Z,3.53
2018-06-14T19:00:58.619Z,4.50
2018-06-14T19:03:27.827Z,5.43
2018-06-14T19:05:57.033Z,6.10
2018-06-14T19:08:26.255Z,4.50
2018-06-14T19:10:55.513Z,4.70
2018-06-14T19:13:24.730Z,4.00
2018-06-14T19:15:53.919Z,4.50
2018-06-14T19:18:23.089Z,4.10
2018-06-14T19:20:52.309Z,4.20
2018-06-14T19:23:21.516Z,4.30
2018-06-14T19:25:50.758Z,4.63
2018-06-14T19:28:20.013Z,3.90
2018-06-14T19:30:49.246Z,4.80
2018-06-14T19:33:18.480Z,4.50
2018-06-14T19:35:47.701Z,5.07
2018-06-14T19:38:17.035Z,5.33
2018-06-14T19:40:46.242Z,6.03
2018-06-14T19:43:15.504Z,6.50
2018-06-14T19:45:44.739Z,5.13
2018-06-14T19:48:13.947Z,4.83
2018-06-14T19:50:43.423Z,4.60
2018-06-14T19:53:12.672Z,4.87
2018-06-14T19:55:41.984Z,6.00
2018-06-14T19:58:11.216Z,8.07
2018-06-14T20:00:40.401Z,5.50
2018-06-14T20:03:09.582Z,5.70
2018-06-14T20:05:38.835Z,5.30
2018-06-14T20:08:07.966Z,5.10
2018-06-14T20:10:37.194Z,4.50
2018-06-14T20:13:06.710Z,5.20
2018-06-14T20:15:35.905Z,5.30
2018-06-14T20:18:05.185Z,5.50
2018-06-14T20:20:34.383Z,5.40
2018-06-14T20:23:03.608Z,4.70
2018-06-14T20:25:32.798Z,4.57
2018-06-14T20:28:02.016Z,4.10
2018-06-14T20:30:31.416Z,4.63
2018-06-14T20:33:00.607Z,4.40
2018-06-14T20:35:29.787Z,5.27
2018-06-14T20:37:58.956Z,6.23
2018-06-14T20:40:28.215Z,6.03
2018-06-14T20:42:57.363Z,7.30
2018-06-14T20:45:26.532Z,7.17
2018-06-14T20:47:56.313Z,8.40
2018-06-14T20:50:25.554Z,6.97
2018-06-14T20:52:54.779Z,8.40
2018-06-14T20:55:24.825Z,6.73
2018-06-14T20:57:54.036Z,6.63
2018-06-14T21:00:24.167Z,7.57
2018-06-14T21:02:53.482Z,6.37
2018-06-14T21:05:22.636Z,5.40
2018-06-14T21:07:52.583Z,4.53
2018-06-14T21:10:21.864Z,5.20
2018-06-14T21:12:51.336Z,4.80
2018-06-14T21:15:20.517Z,4.17
2018-06-14T21:17:49.672Z,4.10
2018-06-14T21:20:18.945Z,4.90
2018-06-14T21:22:48.053Z,6.93
2018-06-14T21:25:17.410Z,5.80
2018-06-14T21:27:46.582Z,5.60
2018-06-14T21:30:15.732Z,5.80
2018-06-14T21:32:45.000Z,5.63
2018-06-14T21:35:14.399Z,6.60
2018-06-14T21:37:43.502Z,6.37
2018-06-14T21:40:12.701Z,5.70
2018-06-14T21:42:42.307Z,6.70
2018-06-14T21:45:11.454Z,5.70
2018-06-14T21:47:40.697Z,5.63
2018-06-14T21:50:09.798Z,5.80
2018-06-14T21:52:40.698Z,5.70
2018-06-14T21:55:09.888Z,5.90
2018-06-14T21:57:40.037Z,5.80
2018-06-14T22:00:09.370Z,6.87
2018-06-14T22:02:46.729Z,5.97
2018-06-14T22:05:17.497Z,5.63
2018-06-14T22:07:46.654Z,5.97
2018-06-14T22:10:15.930Z,5.80
2018-06-14T22:12:45.534Z,5.80
2018-06-14T22:15:14.726Z,6.30
2018-06-14T22:17:44.073Z,6.37
2018-06-14T22:20:13.748Z,6.97
2018-06-14T22:22:43.625Z,6.90
2018-06-14T22:25:12.815Z,6.80
2018-06-14T22:27:41.937Z,7.37
2018-06-14T22:30:11.048Z,8.33
2018-06-14T22:32:40.157Z,7.67
2018-06-14T22:35:28.589Z,8.07
2018-06-14T22:37:57.864Z,8.43
2018-06-14T22:40:27.019Z,7.80
2018-06-14T22:42:56.157Z,7.20
2018-06-14T22:45:25.277Z,7.53
2018-06-14T22:47:54.376Z,8.07
2018-06-14T22:50:40.760Z,7.83
2018-06-14T22:53:10.774Z,7.43
2018-06-14T22:55:40.098Z,6.90
2018-06-14T22:58:09.271Z,7.30
2018-06-14T23:01:47.338Z,7.67
2018-06-14T23:04:18.000Z,6.40
2018-06-14T23:06:47.217Z,7.53
2018-06-14T23:10:38.665Z,6.20
2018-06-14T23:13:09.005Z,6.80
2018-06-14T23:15:38.206Z,6.80
2018-06-14T23:18:07.448Z,5.87
2018-06-14T23:20:37.062Z,6.90
2018-06-14T23:23:06.691Z,6.93
2018-06-14T23:25:36.251Z,5.83
2018-06-14T23:28:05.459Z,7.57
2018-06-14T23:30:34.590Z,6.60
2018-06-14T23:33:03.729Z,7.43
2018-06-14T23:35:32.851Z,6.80
2018-06-14T23:38:02.047Z,6.40
2018-06-14T23:40:31.265Z,6.57
2018-06-14T23:43:00.401Z,6.73
2018-06-14T23:45:29.622Z,6.30
2018-06-14T23:47:58.816Z,6.03
2018-06-14T23:50:28.007Z,6.10
2018-06-14T23:52:57.059Z,6.00
2018-06-14T23:55:26.200Z,7.00
2018-06-14T23:57:55.384Z,6.80
